100LL.CA
Aviation Fuel Pricing for Canadians
Please upgrade your browser - Tested with IE9, FireFox, Chrome, Safari

Fuel Prices Airport Info Airport List METAR / TAF Kneeboard RSS

Reference Airport: Langley Regional, BC
N 49 06 03   W 122 37 51

Enter a list of
Airport Idents:
Sort Method: As Entered    By Ident   

CYVR
METAR CYVR 231500Z 09005KT 050V120 15SM FEW025 FEW030 BKN059 BKN066 OVC100 10/08 A3059 RMK CF1SC1SC3AC2AC1 SLP360
TAF CYVR 231439Z 2315/2418 08007KT P6SM SCT025 BKN040 OVC120 TEMPO 2315/2318 BKN020 OVC040 FM231800 05008KT P6SM SCT040 BKN080 FM240600 VRB03KT P6SM FEW080 BECMG 2415/2417 26008KT RMK NXT FCST BY 231800Z
CYXX
METAR CYXX 231500Z 36003KT 30SM FEW035 BKN120 08/07 A3059 RMK SC1AC6 ACSL SLP361
TAF CYXX 231138Z 2312/2412 VRB03KT P6SM SCT040 BKN130 TEMPO 2312/2318 BKN040 BKN140 FM231800 03007KT P6SM SCT080 BKN140 RMK NXT FCST BY 231800Z
KBLI
METAR KBLI 231453Z 00000KT 10SM OVC100 07/07 A3058 RMK AO2 SLP364 T00720072 51013
TAF KBLI 231120Z 2312/2412 16004KT P6SM MIFG BKN200 FM231800 16006KT P6SM SCT070 BKN200